createdAt,value
2022-10-18T00:01:01.356Z,8.94
2022-10-18T00:03:28.874Z,9.00
2022-10-18T00:05:56.505Z,8.97
2022-10-18T00:08:24.116Z,8.97
2022-10-18T00:10:51.598Z,8.97
2022-10-18T00:13:18.984Z,8.90
2022-10-18T00:16:10.096Z,8.98
2022-10-18T00:18:37.259Z,8.83
2022-10-18T00:21:12.735Z,8.97
2022-10-18T00:23:40.269Z,8.92
2022-10-18T00:26:11.682Z,8.90
2022-10-18T00:28:39.849Z,8.84
2022-10-18T00:31:23.572Z,8.75
2022-10-18T00:33:58.500Z,8.67
2022-10-18T00:36:27.327Z,8.73
2022-10-18T00:38:55.020Z,8.74
2022-10-18T00:41:25.636Z,8.73
2022-10-18T00:44:28.076Z,8.84
2022-10-18T00:47:07.159Z,8.78
2022-10-18T00:49:49.196Z,8.75
2022-10-18T00:52:43.039Z,8.80
2022-10-18T00:55:10.691Z,8.72
2022-10-18T00:57:40.283Z,8.64
2022-10-18T01:00:10.510Z,8.73
2022-10-18T01:02:40.282Z,8.77
2022-10-18T01:05:08.271Z,8.68
2022-10-18T01:07:59.929Z,8.65
2022-10-18T01:11:01.095Z,8.70
2022-10-18T01:13:50.060Z,8.67
2022-10-18T01:16:38.348Z,8.56
2022-10-18T01:19:39.048Z,8.62
2022-10-18T01:22:14.006Z,8.55
2022-10-18T01:24:50.249Z,8.76
2022-10-18T01:27:49.212Z,8.68
2022-10-18T01:30:58.581Z,8.57
2022-10-18T01:33:43.989Z,8.63
2022-10-18T01:36:26.237Z,8.52
2022-10-18T01:38:57.313Z,8.44
2022-10-18T01:41:25.905Z,8.42
2022-10-18T01:44:02.387Z,8.37
2022-10-18T01:46:30.119Z,8.40
2022-10-18T01:48:58.476Z,8.38
2022-10-18T01:51:28.043Z,8.36
2022-10-18T01:53:55.503Z,8.36
2022-10-18T01:56:50.492Z,8.45
2022-10-18T01:59:55.096Z,8.50
2022-10-18T02:02:43.765Z,8.47
2022-10-18T02:05:28.929Z,8.49
2022-10-18T02:08:22.401Z,8.49
2022-10-18T02:10:53.943Z,8.39
2022-10-18T02:13:22.894Z,8.39
2022-10-18T02:16:19.605Z,8.42
2022-10-18T02:18:55.436Z,8.34
2022-10-18T02:21:24.782Z,8.31
2022-10-18T02:23:55.578Z,8.32
2022-10-18T02:26:22.976Z,8.27
2022-10-18T02:28:50.423Z,8.30
2022-10-18T02:31:31.303Z,8.35
2022-10-18T02:33:59.264Z,8.31
2022-10-18T02:36:39.375Z,8.27
2022-10-18T02:39:16.798Z,8.26
2022-10-18T02:41:44.335Z,8.16
2022-10-18T02:44:12.789Z,8.10
2022-10-18T02:46:40.579Z,8.11
2022-10-18T02:49:07.846Z,8.13
2022-10-18T02:51:35.709Z,8.13
2022-10-18T02:54:02.951Z,8.09
2022-10-18T02:56:30.281Z,8.07
2022-10-18T02:58:57.504Z,8.07
2022-10-18T03:01:24.684Z,8.07
2022-10-18T03:03:52.070Z,8.05
2022-10-18T03:06:19.436Z,8.02
2022-10-18T03:08:46.774Z,8.01
2022-10-18T03:11:14.419Z,8.07
2022-10-18T03:13:42.155Z,7.90
2022-10-18T03:16:10.523Z,7.95
2022-10-18T03:18:37.752Z,7.99
2022-10-18T03:21:08.496Z,7.96
2022-10-18T03:23:36.463Z,7.94
2022-10-18T03:26:04.727Z,7.93
2022-10-18T03:28:32.393Z,7.90
2022-10-18T03:31:05.956Z,7.88
2022-10-18T03:33:33.304Z,7.75
2022-10-18T03:36:00.551Z,7.77
2022-10-18T03:38:28.270Z,7.78
2022-10-18T03:40:55.894Z,7.76
2022-10-18T03:43:23.508Z,7.69
2022-10-18T03:45:50.949Z,7.64
2022-10-18T03:48:18.444Z,7.69
2022-10-18T03:50:45.651Z,7.64
2022-10-18T03:53:13.021Z,7.59
2022-10-18T03:55:40.680Z,7.51
2022-10-18T03:58:08.125Z,7.55
2022-10-18T04:00:35.688Z,7.50
2022-10-18T04:03:04.264Z,7.53
2022-10-18T04:05:31.642Z,7.60
2022-10-18T04:08:00.495Z,7.59
2022-10-18T04:10:29.200Z,7.57
2022-10-18T04:12:57.461Z,7.46
2022-10-18T04:15:25.644Z,7.43
2022-10-18T04:17:53.028Z,7.46
2022-10-18T04:20:20.138Z,7.52
2022-10-18T04:22:51.204Z,7.54
2022-10-18T04:25:19.226Z,7.51
2022-10-18T04:27:46.408Z,7.53
2022-10-18T04:30:13.486Z,7.51
2022-10-18T04:32:40.833Z,7.58
2022-10-18T04:35:08.294Z,7.51
2022-10-18T04:37:36.062Z,7.58
2022-10-18T04:40:04.465Z,7.55
2022-10-18T04:42:31.750Z,7.51
2022-10-18T04:44:58.830Z,7.51
2022-10-18T04:47:25.939Z,7.51
2022-10-18T04:49:53.155Z,7.52
2022-10-18T04:52:20.356Z,7.59
2022-10-18T04:54:47.721Z,7.63
2022-10-18T04:57:14.808Z,7.64
2022-10-18T04:59:43.320Z,7.69
2022-10-18T05:02:11.482Z,7.54
2022-10-18T05:04:38.690Z,7.62
2022-10-18T05:07:07.540Z,7.77
2022-10-18T05:09:34.980Z,7.80
2022-10-18T05:12:02.255Z,7.86
2022-10-18T05:14:30.844Z,7.88
2022-10-18T05:16:59.204Z,7.91
2022-10-18T05:19:27.778Z,8.01
2022-10-18T05:21:54.912Z,7.94
2022-10-18T05:24:25.455Z,8.02
2022-10-18T05:26:55.069Z,8.06
2022-10-18T05:29:24.134Z,8.18
2022-10-18T05:31:51.926Z,8.21
2022-10-18T05:34:20.784Z,8.32
2022-10-18T05:36:49.983Z,8.41
2022-10-18T05:39:17.076Z,8.51
2022-10-18T05:41:44.162Z,8.59
2022-10-18T05:44:11.477Z,8.66
2022-10-18T05:46:38.780Z,8.78
2022-10-18T05:49:06.106Z,8.81
2022-10-18T05:51:33.406Z,9.03
2022-10-18T05:54:00.959Z,9.02
2022-10-18T05:56:28.357Z,9.23
2022-10-18T05:58:55.501Z,9.34
2022-10-18T06:01:22.937Z,9.44
2022-10-18T06:03:50.867Z,9.50
2022-10-18T06:06:18.048Z,9.57
2022-10-18T06:08:45.237Z,9.57
2022-10-18T06:11:15.089Z,9.64
2022-10-18T06:13:46.877Z,9.76
2022-10-18T06:16:16.512Z,9.85
2022-10-18T06:18:43.901Z,9.97
2022-10-18T06:21:11.168Z,10.02
2022-10-18T06:23:38.412Z,10.10
2022-10-18T06:26:07.997Z,10.30
2022-10-18T06:28:36.659Z,10.31
2022-10-18T06:31:05.222Z,10.44
2022-10-18T06:33:34.637Z,10.57
2022-10-18T06:36:15.019Z,10.72
2022-10-18T06:38:45.013Z,10.90
2022-10-18T06:41:12.456Z,10.99
2022-10-18T06:43:40.818Z,11.03
2022-10-18T06:46:08.994Z,11.16
2022-10-18T06:48:38.836Z,11.24
2022-10-18T06:51:08.206Z,11.45
2022-10-18T06:53:44.247Z,11.53
2022-10-18T06:56:21.076Z,11.47
2022-10-18T06:58:48.316Z,11.69
2022-10-18T07:01:18.197Z,11.89
2022-10-18T07:03:47.466Z,11.93
2022-10-18T07:06:17.997Z,12.03
2022-10-18T07:08:46.120Z,12.19
2022-10-18T07:11:19.774Z,12.23
2022-10-18T07:13:47.094Z,12.31
2022-10-18T07:16:18.415Z,12.36
2022-10-18T07:18:51.267Z,12.49
2022-10-18T07:21:23.895Z,12.62
2022-10-18T07:23:52.290Z,12.62
2022-10-18T07:26:33.420Z,12.76
2022-10-18T07:29:05.372Z,12.79
2022-10-18T07:31:33.526Z,12.82
2022-10-18T07:34:01.331Z,12.81
2022-10-18T07:36:28.563Z,12.86
2022-10-18T07:38:57.572Z,13.00
2022-10-18T07:41:24.999Z,13.02
2022-10-18T07:43:53.325Z,13.08
2022-10-18T07:46:22.477Z,13.11
2022-10-18T07:48:50.410Z,13.23
2022-10-18T07:51:18.989Z,13.35
2022-10-18T07:53:46.550Z,13.47
2022-10-18T07:56:16.755Z,13.57
2022-10-18T07:58:45.416Z,13.70
2022-10-18T08:01:13.498Z,13.88
2022-10-18T08:03:43.743Z,13.92
2022-10-18T08:06:13.374Z,14.03
2022-10-18T08:08:41.423Z,14.05
2022-10-18T08:11:15.160Z,14.17
2022-10-18T08:13:43.171Z,14.38
2022-10-18T08:16:13.733Z,14.36
2022-10-18T08:18:41.873Z,14.44
2022-10-18T08:21:10.633Z,14.56
2022-10-18T08:23:38.623Z,14.54
2022-10-18T08:26:08.812Z,14.67
2022-10-18T08:28:38.062Z,14.72
2022-10-18T08:31:07.489Z,14.79
2022-10-18T08:33:36.350Z,14.95
2022-10-18T08:36:06.675Z,15.06
2022-10-18T08:38:36.244Z,15.06
2022-10-18T08:41:36.247Z,15.19
2022-10-18T08:44:07.436Z,15.22
2022-10-18T08:46:38.247Z,15.28
2022-10-18T08:49:06.931Z,15.35
2022-10-18T08:51:46.885Z,15.37
2022-10-18T08:54:19.363Z,15.44
2022-10-18T08:56:57.258Z,15.53
2022-10-18T08:59:25.598Z,15.61
2022-10-18T09:02:17.877Z,15.82
2022-10-18T09:05:03.761Z,15.92
2022-10-18T09:07:37.130Z,15.92
2022-10-18T09:10:30.008Z,16.05
2022-10-18T09:13:15.781Z,16.07
2022-10-18T09:15:55.805Z,16.06
2022-10-18T09:19:02.839Z,16.23
2022-10-18T09:22:15.033Z,16.32
2022-10-18T09:25:29.033Z,16.31
2022-10-18T09:28:09.099Z,16.32
2022-10-18T09:31:16.907Z,16.33
2022-10-18T09:34:02.700Z,16.37
2022-10-18T09:36:36.803Z,16.45
2022-10-18T09:39:17.028Z,16.53
2022-10-18T09:41:49.205Z,16.43
2022-10-18T09:44:22.664Z,16.40
2022-10-18T09:47:03.773Z,16.36
2022-10-18T09:49:41.809Z,16.48
2022-10-18T09:52:16.561Z,16.39
2022-10-18T09:54:51.174Z,16.50
2022-10-18T10:01:33.872Z,16.66
2022-10-18T10:04:01.543Z,16.66
2022-10-18T10:08:04.671Z,16.77
2022-10-18T10:10:33.068Z,16.62
2022-10-18T10:13:28.269Z,16.65
2022-10-18T10:15:57.979Z,16.75
2022-10-18T10:18:30.300Z,16.69
2022-10-18T10:21:05.851Z,16.73
2022-10-18T10:23:46.825Z,16.75
2022-10-18T10:26:25.100Z,16.72
2022-10-18T10:28:52.626Z,16.74
2022-10-18T10:31:27.360Z,16.94
2022-10-18T10:34:07.963Z,16.92
2022-10-18T10:36:46.358Z,16.80
2022-10-18T10:39:19.702Z,16.83
2022-10-18T10:41:50.300Z,16.90
2022-10-18T10:44:20.388Z,17.00
2022-10-18T10:46:50.850Z,17.01
2022-10-18T10:49:40.820Z,16.91
2022-10-18T10:52:28.833Z,16.98
2022-10-18T10:55:16.723Z,16.99
2022-10-18T10:57:51.796Z,17.08
2022-10-18T11:00:34.474Z,17.14
2022-10-18T11:03:33.818Z,17.05
2022-10-18T11:06:02.404Z,17.05
2022-10-18T11:08:40.542Z,17.05
2022-10-18T11:11:28.032Z,17.24
2022-10-18T11:14:26.304Z,17.32
2022-10-18T11:17:45.851Z,17.45
2022-10-18T11:20:41.803Z,17.50
2022-10-18T11:23:13.924Z,17.34
2022-10-18T11:25:58.926Z,17.39
2022-10-18T11:28:45.269Z,17.49
2022-10-18T11:31:23.395Z,17.37
2022-10-18T11:34:16.095Z,17.37
2022-10-18T11:36:56.221Z,17.33
2022-10-18T11:39:36.448Z,17.42
2022-10-18T11:42:27.704Z,17.39
2022-10-18T11:45:15.408Z,17.58
2022-10-18T11:47:59.140Z,17.59
2022-10-18T11:50:43.578Z,17.62
2022-10-18T11:53:52.004Z,17.64
2022-10-18T11:56:30.366Z,17.57
2022-10-18T11:59:22.710Z,17.60
2022-10-18T12:01:56.100Z,17.71
2022-10-18T12:04:49.008Z,17.83
2022-10-18T12:07:39.959Z,17.86
2022-10-18T12:10:09.910Z,17.90
2022-10-18T12:12:53.453Z,18.10
2022-10-18T12:15:24.362Z,18.01
2022-10-18T12:17:56.209Z,18.09
2022-10-18T12:20:30.396Z,18.02
2022-10-18T12:23:04.120Z,18.13
2022-10-18T12:25:38.755Z,18.08
2022-10-18T12:28:09.008Z,18.26
2022-10-18T12:30:54.642Z,18.20
2022-10-18T12:33:28.682Z,18.09
2022-10-18T12:36:02.315Z,18.18
2022-10-18T12:38:34.715Z,18.00
2022-10-18T12:41:03.618Z,18.01
2022-10-18T12:43:36.946Z,18.09
2022-10-18T12:46:12.261Z,18.02
2022-10-18T12:48:45.721Z,18.08
2022-10-18T12:51:16.552Z,18.02
2022-10-18T12:53:46.468Z,17.81
2022-10-18T12:56:28.891Z,17.77
2022-10-18T12:59:14.508Z,17.63
2022-10-18T13:01:50.971Z,17.52
2022-10-18T13:04:33.844Z,17.49
2022-10-18T13:07:32.613Z,17.40
2022-10-18T13:10:13.100Z,17.41
2022-10-18T13:12:41.078Z,17.33
2022-10-18T13:15:36.236Z,17.29
2022-10-18T13:18:22.549Z,17.21
2022-10-18T13:21:18.715Z,17.13
2022-10-18T13:24:19.897Z,17.07
2022-10-18T13:30:11.912Z,16.95
2022-10-18T13:32:54.167Z,17.01
2022-10-18T13:35:55.801Z,17.07
2022-10-18T13:38:47.494Z,17.17
2022-10-18T13:41:16.648Z,17.16
2022-10-18T13:43:53.392Z,17.15
2022-10-18T13:46:32.916Z,17.16
2022-10-18T13:49:31.982Z,17.13
2022-10-18T13:52:17.541Z,17.01
2022-10-18T13:55:03.456Z,16.92
2022-10-18T13:57:54.207Z,16.76
2022-10-18T14:00:33.123Z,16.70
2022-10-18T14:03:37.919Z,16.65
2022-10-18T14:06:10.690Z,16.56
2022-10-18T14:08:56.882Z,16.58
2022-10-18T14:11:46.245Z,16.48
2022-10-18T14:14:38.962Z,16.39
2022-10-18T14:17:26.801Z,16.38
2022-10-18T14:20:29.445Z,16.32
2022-10-18T14:23:18.970Z,16.22
2022-10-18T14:25:46.883Z,16.13
2022-10-18T14:28:31.557Z,16.06
2022-10-18T14:31:16.027Z,15.98
2022-10-18T14:33:57.096Z,16.04
2022-10-18T14:36:27.957Z,15.77
2022-10-18T14:39:00.772Z,15.88
2022-10-18T14:41:29.174Z,15.82
2022-10-18T14:44:11.684Z,15.89
2022-10-18T14:47:03.165Z,15.86
2022-10-18T14:49:31.066Z,15.74
2022-10-18T14:52:00.473Z,15.71
2022-10-18T14:54:38.355Z,15.75
2022-10-18T14:57:07.232Z,15.66
2022-10-18T14:59:45.216Z,15.71
2022-10-18T15:02:21.896Z,15.65
2022-10-18T15:04:58.172Z,15.74
2022-10-18T15:07:28.922Z,15.73
2022-10-18T15:09:59.467Z,15.67
2022-10-18T15:12:29.624Z,15.71
2022-10-18T15:15:01.536Z,15.65
2022-10-18T15:17:31.885Z,15.64
2022-10-18T15:20:17.874Z,15.63
2022-10-18T15:22:46.944Z,15.55
2022-10-18T15:25:18.403Z,15.65
2022-10-18T15:27:52.162Z,15.56
2022-10-18T15:30:25.268Z,15.41
2022-10-18T15:32:55.925Z,15.56
2022-10-18T15:35:29.238Z,15.55
2022-10-18T15:37:58.354Z,15.56
2022-10-18T15:40:28.861Z,15.51
2022-10-18T15:42:58.424Z,15.50
2022-10-18T15:45:25.826Z,15.54
2022-10-18T15:48:11.506Z,15.59
2022-10-18T15:50:43.108Z,15.55
2022-10-18T15:53:24.373Z,15.53
2022-10-18T15:55:52.863Z,15.38
2022-10-18T15:58:32.211Z,15.33
2022-10-18T16:01:01.418Z,15.29
2022-10-18T16:03:29.072Z,15.08
2022-10-18T16:06:04.014Z,15.20
2022-10-18T16:08:32.493Z,15.22
2022-10-18T16:11:00.009Z,15.20
2022-10-18T16:13:27.817Z,15.11
2022-10-18T16:15:56.319Z,15.06
2022-10-18T16:18:25.319Z,15.05
2022-10-18T16:20:53.275Z,14.91
2022-10-18T16:23:22.199Z,15.01
2022-10-18T16:25:49.877Z,14.94
2022-10-18T16:28:22.882Z,14.91
2022-10-18T16:30:58.935Z,14.74
2022-10-18T16:33:27.217Z,14.80
2022-10-18T16:35:54.561Z,14.84
2022-10-18T16:38:48.213Z,14.85
2022-10-18T16:41:16.214Z,14.75
2022-10-18T16:43:45.324Z,14.71
2022-10-18T16:46:19.557Z,14.64
2022-10-18T16:48:49.260Z,14.71
2022-10-18T16:51:17.090Z,14.58
2022-10-18T16:53:44.501Z,14.56
2022-10-18T16:56:21.171Z,14.57
2022-10-18T16:58:49.415Z,14.55
2022-10-18T17:01:21.122Z,14.56
2022-10-18T17:03:49.097Z,14.51
2022-10-18T17:06:22.576Z,14.40
2022-10-18T17:08:51.019Z,14.40
2022-10-18T17:11:19.841Z,14.43
2022-10-18T17:13:47.783Z,14.37
2022-10-18T17:18:58.542Z,14.43
2022-10-18T17:21:28.027Z,14.39
2022-10-18T17:23:55.537Z,14.31
2022-10-18T17:26:31.446Z,14.41
2022-10-18T17:29:02.165Z,14.34
2022-10-18T17:31:30.829Z,14.43
2022-10-18T17:33:58.888Z,14.42
2022-10-18T17:36:28.450Z,14.45
2022-10-18T17:38:56.545Z,14.38
2022-10-18T17:41:24.007Z,14.31
2022-10-18T17:43:51.223Z,14.24
2022-10-18T17:46:19.904Z,14.22
2022-10-18T17:48:47.619Z,14.12
2022-10-18T17:51:17.376Z,14.24
2022-10-18T17:53:45.267Z,14.14
2022-10-18T17:56:13.540Z,14.23
2022-10-18T17:58:43.739Z,14.24
2022-10-18T18:01:14.978Z,14.33
2022-10-18T18:03:43.007Z,14.23
2022-10-18T18:06:19.649Z,14.25
2022-10-18T18:08:48.210Z,14.15
2022-10-18T18:11:17.131Z,14.17
2022-10-18T18:13:44.510Z,14.12
2022-10-18T18:16:23.735Z,14.16
2022-10-18T18:18:57.186Z,14.03
2022-10-18T18:21:25.820Z,14.04
2022-10-18T18:23:53.702Z,14.04
2022-10-18T18:26:22.686Z,14.09
2022-10-18T18:28:50.179Z,14.07
2022-10-18T18:31:20.328Z,14.18
2022-10-18T18:33:47.527Z,14.17
2022-10-18T18:36:14.733Z,14.03
2022-10-18T18:38:45.043Z,13.96
2022-10-18T18:41:17.987Z,13.91
2022-10-18T18:43:49.980Z,13.95
2022-10-18T18:46:17.186Z,13.94
2022-10-18T18:48:45.317Z,13.97
2022-10-18T18:51:15.314Z,13.92
2022-10-18T18:53:44.861Z,13.93
2022-10-18T18:56:16.044Z,13.91
2022-10-18T18:58:46.341Z,13.92
2022-10-18T19:01:17.620Z,13.96
2022-10-18T19:03:46.740Z,13.76
2022-10-18T19:06:16.979Z,13.96
2022-10-18T19:08:45.370Z,13.89
2022-10-18T19:11:15.350Z,13.72
2022-10-18T19:13:43.310Z,13.80
2022-10-18T19:16:18.300Z,13.71
2022-10-18T19:18:53.443Z,13.73
2022-10-18T19:21:21.781Z,13.64
2022-10-18T19:23:50.580Z,13.55
2022-10-18T19:26:32.339Z,13.56
2022-10-18T19:29:24.772Z,13.43
2022-10-18T19:31:54.669Z,13.44
2022-10-18T19:34:23.748Z,13.57
2022-10-18T19:36:54.420Z,13.59
2022-10-18T19:39:32.376Z,13.70
2022-10-18T19:42:03.424Z,13.80
2022-10-18T19:44:33.934Z,13.71
2022-10-18T19:47:02.787Z,13.73
2022-10-18T19:49:30.155Z,13.68
2022-10-18T19:51:57.660Z,13.76
2022-10-18T19:54:25.287Z,13.68
2022-10-18T19:56:52.920Z,13.60
2022-10-18T19:59:20.311Z,13.56
2022-10-18T20:01:48.497Z,13.54
2022-10-18T20:04:16.422Z,13.45
2022-10-18T20:06:44.158Z,13.42
2022-10-18T20:09:16.277Z,13.40
2022-10-18T20:11:47.032Z,13.41
2022-10-18T20:14:14.732Z,13.41
2022-10-18T20:16:41.969Z,13.29
2022-10-18T20:19:09.760Z,13.28
2022-10-18T20:21:37.305Z,13.29
2022-10-18T20:24:05.778Z,13.26
2022-10-18T20:26:36.056Z,13.16
2022-10-18T20:29:04.256Z,13.29
2022-10-18T20:31:34.937Z,13.31
2022-10-18T20:34:04.851Z,13.35
2022-10-18T20:36:33.013Z,13.39
2022-10-18T20:39:00.631Z,13.39
2022-10-18T20:41:41.316Z,13.32
2022-10-18T20:44:13.557Z,13.43
2022-10-18T20:46:41.167Z,13.44
2022-10-18T20:49:10.425Z,13.41
2022-10-18T20:51:37.726Z,13.42
2022-10-18T20:54:07.418Z,13.38
2022-10-18T20:56:36.650Z,13.43
2022-10-18T20:59:06.362Z,13.43
2022-10-18T21:01:35.204Z,13.43
2022-10-18T21:04:04.749Z,13.28
2022-10-18T21:06:34.463Z,13.18
2022-10-18T21:09:05.467Z,13.20
2022-10-18T21:11:37.730Z,13.12
2022-10-18T21:14:06.053Z,13.18
2022-10-18T21:16:36.109Z,13.20
2022-10-18T21:19:10.184Z,13.18
2022-10-18T21:21:37.804Z,13.18
2022-10-18T21:24:07.708Z,13.15
2022-10-18T21:26:35.924Z,13.23
2022-10-18T21:29:04.985Z,13.24
2022-10-18T21:31:39.324Z,13.17
2022-10-18T21:34:17.965Z,13.28
2022-10-18T21:36:47.543Z,13.28
2022-10-18T21:39:17.933Z,13.32
2022-10-18T21:41:45.645Z,13.17
2022-10-18T21:44:13.297Z,13.08
2022-10-18T21:46:43.131Z,13.24
2022-10-18T21:49:11.336Z,13.33
2022-10-18T21:51:38.938Z,13.37
2022-10-18T21:54:14.963Z,13.26
2022-10-18T21:56:42.454Z,13.09
2022-10-18T21:59:12.847Z,13.19
2022-10-18T22:01:40.796Z,13.19
2022-10-18T22:04:22.153Z,13.11
2022-10-18T22:06:50.125Z,13.05
2022-10-18T22:09:17.326Z,12.98
2022-10-18T22:11:49.193Z,13.05
2022-10-18T22:14:16.858Z,12.91
2022-10-18T22:16:44.009Z,13.00
2022-10-18T22:19:11.514Z,12.94
2022-10-18T22:21:38.997Z,12.83
2022-10-18T22:24:09.129Z,12.88
2022-10-18T22:26:39.058Z,12.80
2022-10-18T22:29:10.489Z,12.80
2022-10-18T22:31:40.147Z,12.74
2022-10-18T22:34:11.587Z,12.77
2022-10-18T22:36:39.118Z,12.72
2022-10-18T22:39:07.066Z,12.67
2022-10-18T22:41:35.270Z,12.72
2022-10-18T22:44:03.851Z,12.60
2022-10-18T22:46:33.054Z,12.60
2022-10-18T22:49:00.429Z,12.54
2022-10-18T22:51:28.068Z,12.46
2022-10-18T22:53:55.503Z,12.41
2022-10-18T22:56:24.472Z,12.18
2022-10-18T22:58:53.459Z,12.28
2022-10-18T23:01:23.184Z,12.31
2022-10-18T23:03:55.275Z,12.23
2022-10-18T23:06:25.754Z,12.26
2022-10-18T23:08:54.491Z,12.18
2022-10-18T23:11:21.832Z,12.16
2022-10-18T23:13:49.489Z,12.14
2022-10-18T23:16:17.676Z,12.12
2022-10-18T23:18:48.773Z,12.03
2022-10-18T23:21:18.757Z,12.13
2022-10-18T23:23:45.975Z,12.23
2022-10-18T23:26:19.718Z,12.33
2022-10-18T23:28:49.544Z,12.35
2022-10-18T23:31:21.110Z,12.37
2022-10-18T23:33:50.052Z,12.47
2022-10-18T23:36:20.212Z,12.48
2022-10-18T23:38:47.595Z,12.54
2022-10-18T23:41:16.420Z,12.32
2022-10-18T23:43:46.594Z,12.13
2022-10-18T23:46:14.956Z,11.97
2022-10-18T23:48:42.270Z,11.85
2022-10-18T23:51:10.038Z,11.78
2022-10-18T23:53:38.329Z,11.73
2022-10-18T23:56:10.674Z,11.63
2022-10-18T23:58:38.812Z,11.51
